Time;durP1;ratioP1;P1;durP2;ratioP2;P2;SDS_P1;SDS_P2;PMS_P1;PMS_P2;Temp;Humidity;BMP_temperature;BMP_pressure;BME280_temperature;BME280_humidity;BME280_pressure;Samples;Min_cycle;Max_cycle;Signal;HPM_P1;HPM_P2
2021/07/29 00:02:21;;;;;;;16.92;9.15;;;;;;;18.42;84.89;100171.84;5034199;28;20435;-82
2021/07/29 00:04:46;;;;;;;19.92;9.88;;;;;;;18.33;83.50;100180.19;5034140;28;20034;-82
2021/07/29 00:07:12;;;;;;;14.30;9.10;;;;;;;18.43;83.09;100173.53;5033483;28;20037;-82
2021/07/29 00:09:37;;;;;;;13.75;7.95;;;;;;;18.42;83.99;100167.22;5034587;28;20501;-82
2021/07/29 00:12:03;;;;;;;14.07;8.65;;;;;;;18.34;83.16;100162.81;5034715;28;20400;-81
2021/07/29 00:14:29;;;;;;;20.08;8.50;;;;;;;18.41;82.45;100159.28;5033978;28;20044;-82
2021/07/29 00:16:58;;;;;;;15.98;9.77;;;;;;;18.38;82.80;100165.97;5015514;28;20112;-82
2021/07/29 00:19:24;;;;;;;21.33;9.57;;;;;;;18.51;83.81;100162.47;5015626;28;20026;-82
2021/07/29 00:21:49;;;;;;;18.88;8.38;;;;;;;18.45;81.86;100157.81;5014785;28;20055;-82
2021/07/29 00:24:14;;;;;;;22.38;9.50;;;;;;;18.34;82.29;100151.06;5032521;28;20590;-82
2021/07/29 00:26:40;;;;;;;23.50;10.40;;;;;;;18.43;83.80;100147.16;5032589;28;20369;-81
2021/07/29 00:29:06;;;;;;;18.98;10.60;;;;;;;18.42;81.97;100147.34;5014224;28;20040;-82
2021/07/29 00:31:33;;;;;;;20.35;8.45;;;;;;;18.38;81.97;100145.00;5033649;28;20499;-82
2021/07/29 00:33:59;;;;;;;21.85;9.63;;;;;;;18.43;81.76;100149.03;5016103;28;20036;-82
2021/07/29 00:36:25;;;;;;;17.42;8.57;;;;;;;18.43;81.68;100135.41;5035509;28;20036;-82
2021/07/29 00:38:51;;;;;;;17.33;9.85;;;;;;;18.43;80.52;100127.25;5033226;28;20033;-81
2021/07/29 00:41:17;;;;;;;24.67;9.95;;;;;;;18.37;81.07;100132.44;5015194;28;20091;-82
2021/07/29 00:43:42;;;;;;;24.90;9.02;;;;;;;18.31;81.89;100130.53;5032975;28;20022;-82
2021/07/29 00:46:09;;;;;;;18.88;9.48;;;;;;;18.26;82.43;100127.56;5032823;28;20160;-82
2021/07/29 00:48:35;;;;;;;18.50;8.70;;;;;;;18.19;81.27;100123.13;5031869;28;20033;-82
2021/07/29 00:51:01;;;;;;;20.92;10.18;;;;;;;18.14;81.50;100124.56;5032167;28;20040;-81
2021/07/29 00:53:28;;;;;;;27.30;10.82;;;;;;;18.22;82.33;100123.56;5013714;28;20073;-81
2021/07/29 00:55:55;;;;;;;23.33;12.35;;;;;;;18.09;82.73;100126.19;5032023;28;20029;-82
2021/07/29 00:58:20;;;;;;;27.67;14.27;;;;;;;18.18;82.62;100113.28;5031834;28;20114;-81
2021/07/29 01:00:46;;;;;;;26.92;12.85;;;;;;;18.17;82.74;100112.44;5031699;28;20033;-81
2021/07/29 01:03:11;;;;;;;29.35;14.18;;;;;;;18.14;81.93;100110.94;5033519;28;20036;-82
2021/07/29 01:05:36;;;;;;;36.38;17.13;;;;;;;18.16;81.28;100104.50;5032916;28;20037;-81
2021/07/29 01:08:02;;;;;;;31.40;15.27;;;;;;;18.12;81.50;100102.16;5033074;28;20029;-82
2021/07/29 01:10:28;;;;;;;37.05;16.55;;;;;;;18.12;82.72;100106.75;5032515;28;20115;-82
2021/07/29 01:12:54;;;;;;;44.72;20.95;;;;;;;18.14;81.81;100099.22;5032367;28;20040;-82
2021/07/29 01:15:19;;;;;;;28.80;15.30;;;;;;;18.20;82.21;100098.44;5032044;28;20029;-82
2021/07/29 01:17:44;;;;;;;34.03;15.60;;;;;;;18.24;82.50;100093.41;5031684;28;20096;-81
2021/07/29 01:20:17;;;;;;;30.80;16.40;;;;;;;18.16;82.11;100097.16;5013516;28;20041;-82
2021/07/29 01:22:43;;;;;;;31.83;18.20;;;;;;;18.21;82.17;100085.66;5031217;28;20388;-82
2021/07/29 01:25:10;;;;;;;29.88;14.48;;;;;;;18.36;82.78;100080.91;5030973;28;20037;-81
2021/07/29 01:27:37;;;;;;;23.92;14.32;;;;;;;18.33;81.76;100084.91;5013133;28;20025;-82
2021/07/29 01:30:03;;;;;;;28.88;17.52;;;;;;;18.40;81.30;100086.81;5014103;28;20199;-82
2021/07/29 01:32:29;;;;;;;31.02;17.02;;;;;;;18.28;80.75;100081.09;5033457;28;20486;-82
2021/07/29 01:34:56;;;;;;;39.53;19.55;;;;;;;18.33;80.75;100068.56;5033041;28;20045;-82
2021/07/29 01:37:21;;;;;;;25.60;16.77;;;;;;;18.38;81.34;100076.94;5032866;28;20030;-82
2021/07/29 01:39:46;;;;;;;31.33;18.25;;;;;;;18.28;80.73;100071.06;5014135;28;20037;-82
2021/07/29 01:42:12;;;;;;;27.52;16.60;;;;;;;18.19;80.91;100061.38;5032315;28;20056;-82
2021/07/29 01:44:37;;;;;;;21.23;13.45;;;;;;;18.35;81.09;100058.31;5031968;28;20358;-82
2021/07/29 01:47:02;;;;;;;25.77;14.27;;;;;;;18.41;81.03;100063.97;5013613;28;20148;-82
2021/07/29 01:49:28;;;;;;;32.67;16.23;;;;;;;18.41;79.92;100058.53;5031726;28;20036;-82
2021/07/29 01:51:53;;;;;;;25.33;15.70;;;;;;;18.54;80.78;100055.84;5031401;28;20034;-81
2021/07/29 01:54:18;;;;;;;18.65;13.43;;;;;;;18.38;78.96;100048.88;5030912;28;20595;-82
2021/07/29 01:56:44;;;;;;;30.02;15.40;;;;;;;18.30;80.28;100049.88;5031030;28;20025;-82
2021/07/29 01:59:09;;;;;;;19.88;12.27;;;;;;;18.31;80.75;100037.97;5012735;28;20035;-81
2021/07/29 02:01:35;;;;;;;31.23;14.82;;;;;;;18.38;80.93;100043.44;5032377;28;20128;-82
2021/07/29 02:04:00;;;;;;;23.75;14.60;;;;;;;18.34;79.46;100048.47;5014258;28;20029;-82
2021/07/29 02:06:25;;;;;;;24.25;13.57;;;;;;;18.20;78.44;100044.00;5014219;28;20037;-81
2021/07/29 02:08:51;;;;;;;28.95;14.30;;;;;;;18.30;79.28;100049.88;5014029;28;20036;-82
2021/07/29 02:11:16;;;;;;;19.48;12.25;;;;;;;18.30;78.95;100036.28;5033183;28;20028;-83
2021/07/29 02:13:41;;;;;;;26.27;13.15;;;;;;;18.17;78.96;100025.34;5013601;28;20052;-81
2021/07/29 02:16:09;;;;;;;21.92;13.07;;;;;;;18.11;79.64;100028.88;5014276;28;20051;-82
2021/07/29 02:18:34;;;;;;;25.27;13.18;;;;;;;18.13;79.47;100038.53;5032035;28;20029;-81
2021/07/29 02:20:59;;;;;;;22.55;12.65;;;;;;;18.12;78.46;100023.25;5031159;28;20084;-82
2021/07/29 02:23:24;;;;;;;23.23;13.43;;;;;;;18.25;79.56;100022.47;5013034;28;20029;-81
2021/07/29 02:25:50;;;;;;;23.23;12.98;;;;;;;18.18;79.44;100021.56;5012128;28;20030;-81
2021/07/29 02:28:15;;;;;;;21.83;11.32;;;;;;;18.14;78.94;100017.59;5030539;28;20027;-82
2021/07/29 02:30:40;;;;;;;25.17;12.85;;;;;;;18.03;78.81;100019.03;5014615;28;20025;-81
2021/07/29 02:33:05;;;;;;;22.38;12.43;;;;;;;18.03;79.27;100029.91;5032172;28;20025;-82
2021/07/29 02:35:31;;;;;;;21.25;13.57;;;;;;;18.09;79.67;100023.66;5030911;28;20033;-81
2021/07/29 02:37:56;;;;;;;19.38;11.68;;;;;;;17.96;78.39;100017.31;5029481;28;20559;-81
2021/07/29 02:40:22;;;;;;;22.48;12.32;;;;;;;17.97;79.31;100017.13;5030218;28;20148;-82
2021/07/29 02:42:47;;;;;;;23.60;11.02;;;;;;;18.01;78.79;100012.94;5031060;28;20037;-81
2021/07/29 02:45:12;;;;;;;25.55;12.70;;;;;;;17.92;77.80;100014.16;5031928;28;20025;-82
2021/07/29 02:47:38;;;;;;;16.05;10.70;;;;;;;18.00;78.58;100018.56;5031703;28;20049;-82
2021/07/29 02:50:03;;;;;;;25.55;12.70;;;;;;;18.03;78.58;100010.88;5031137;28;20524;-81
2021/07/29 02:52:28;;;;;;;28.75;12.55;;;;;;;18.00;77.55;100008.53;5013824;28;20040;-81
2021/07/29 02:54:54;;;;;;;23.27;11.68;;;;;;;17.83;77.77;100010.75;5034674;28;20018;-81
2021/07/29 02:57:19;;;;;;;27.67;12.93;;;;;;;17.91;79.10;100010.59;5034292;28;20025;-81
2021/07/29 02:59:44;;;;;;;17.90;11.23;;;;;;;17.90;77.95;100006.16;5035055;28;20507;-82
2021/07/29 03:02:10;;;;;;;17.98;10.82;;;;;;;17.91;78.20;99997.00;5018079;28;20025;-81
2021/07/29 03:04:35;;;;;;;17.70;9.80;;;;;;;17.94;78.01;99995.75;5036485;28;20037;-81
2021/07/29 03:07:00;;;;;;;21.60;11.55;;;;;;;17.87;78.41;100000.28;5035144;28;20028;-81
2021/07/29 03:09:25;;;;;;;26.65;12.27;;;;;;;17.82;77.44;99990.03;5016908;28;20110;-81
2021/07/29 03:11:51;;;;;;;20.55;10.80;;;;;;;17.85;76.91;99978.75;5033932;28;20472;-82
2021/07/29 03:14:19;;;;;;;24.92;12.65;;;;;;;17.89;77.37;99977.28;5033855;28;20021;-81
2021/07/29 03:16:44;;;;;;;15.00;10.90;;;;;;;17.80;77.21;99973.06;5017436;28;20057;-82
2021/07/29 03:19:09;;;;;;;18.27;12.00;;;;;;;17.82;76.91;99979.16;5017779;28;20063;-82
2021/07/29 03:21:34;;;;;;;23.40;11.70;;;;;;;17.73;77.87;99982.22;5035005;28;20049;-81
2021/07/29 03:24:00;;;;;;;29.08;12.70;;;;;;;17.78;77.83;99966.97;5034727;28;20100;-82
2021/07/29 03:26:25;;;;;;;23.35;11.38;;;;;;;17.78;77.09;99971.59;5016793;28;20128;-82
2021/07/29 03:28:50;;;;;;;20.27;12.50;;;;;;;17.69;77.23;99969.03;5037352;28;20032;-82
2021/07/29 03:31:16;;;;;;;22.25;13.07;;;;;;;17.58;77.86;99964.13;5036804;28;20025;-81
2021/07/29 03:33:41;;;;;;;18.65;11.32;;;;;;;17.64;77.22;99965.22;5016730;28;20025;-81
2021/07/29 03:36:06;;;;;;;18.73;10.93;;;;;;;17.65;76.86;99975.88;5035058;28;20037;-81
2021/07/29 03:38:31;;;;;;;21.98;13.07;;;;;;;17.65;77.28;99965.00;5016209;28;20029;-81
2021/07/29 03:40:57;;;;;;;19.52;11.43;;;;;;;17.83;77.19;99978.09;5033798;28;20065;-82
2021/07/29 03:43:22;;;;;;;19.77;12.43;;;;;;;17.95;77.45;99981.09;5015612;28;20025;-81
2021/07/29 03:45:47;;;;;;;15.68;10.85;;;;;;;17.81;77.02;99990.22;5033255;28;20040;-81
2021/07/29 03:48:13;;;;;;;24.38;13.82;;;;;;;17.78;77.25;99979.75;5033051;28;20053;-81
2021/07/29 03:50:39;;;;;;;23.95;12.48;;;;;;;17.86;76.52;99976.88;5032915;28;20500;-81
2021/07/29 03:53:04;;;;;;;14.32;10.15;;;;;;;17.83;76.43;99983.53;5035185;28;20086;-81
2021/07/29 03:55:30;;;;;;;18.13;10.20;;;;;;;17.99;76.73;99976.91;5034658;28;20021;-82
2021/07/29 03:57:55;;;;;;;20.70;10.75;;;;;;;17.95;75.38;99983.81;5035139;28;20195;-81
2021/07/29 04:00:20;;;;;;;17.75;11.00;;;;;;;17.97;75.76;99972.72;5034796;28;20071;-82
2021/07/29 04:02:46;;;;;;;17.80;12.70;;;;;;;18.02;75.06;99968.34;5017374;28;20044;-82
2021/07/29 04:05:11;;;;;;;23.17;11.30;;;;;;;17.94;75.58;99978.56;5033236;28;20034;-82
2021/07/29 04:07:37;;;;;;;12.95;9.77;;;;;;;17.82;74.98;99962.00;5034409;28;20040;-81
2021/07/29 04:10:04;;;;;;;19.25;11.95;;;;;;;17.87;75.23;99962.22;5015242;28;20036;-81
2021/07/29 04:12:30;;;;;;;16.63;9.65;;;;;;;17.90;75.30;99965.38;5014979;28;20025;-82
2021/07/29 04:14:55;;;;;;;25.05;10.88;;;;;;;17.80;74.91;99956.75;5032594;28;20155;-81
2021/07/29 04:17:21;;;;;;;15.57;9.80;;;;;;;17.92;74.85;99954.28;5032303;28;20116;-81
2021/07/29 04:19:46;;;;;;;14.43;9.55;;;;;;;18.07;74.98;99957.69;5033726;28;20126;-82
2021/07/29 04:22:12;;;;;;;17.58;10.38;;;;;;;18.13;74.54;99956.88;5035054;28;20033;-81
2021/07/29 04:24:38;;;;;;;19.88;10.27;;;;;;;18.24;75.29;99963.59;5034660;28;20029;-82
2021/07/29 04:27:04;;;;;;;16.67;9.30;;;;;;;18.35;74.07;99965.75;5033938;28;20039;-82
2021/07/29 04:29:34;;;;;;;15.98;9.43;;;;;;;18.44;73.49;99965.56;5033598;28;20048;-82
2021/07/29 04:32:00;;;;;;;14.65;9.90;;;;;;;18.61;74.23;99958.69;5033677;28;20025;-81
2021/07/29 04:34:25;;;;;;;12.57;8.82;;;;;;;18.72;73.28;99965.41;5014447;28;20021;-82
2021/07/29 04:36:54;;;;;;;11.65;8.15;;;;;;;18.66;72.67;99967.06;5032238;28;20799;-81
2021/07/29 04:39:19;;;;;;;14.82;9.02;;;;;;;18.72;72.81;99976.28;5014042;28;20056;-82
2021/07/29 04:41:45;;;;;;;13.85;9.10;;;;;;;18.81;72.32;99969.63;5031853;28;20021;-81
2021/07/29 04:44:12;;;;;;;12.90;7.38;;;;;;;18.83;72.11;99968.38;5032491;28;20025;-82
2021/07/29 04:46:38;;;;;;;100.40;15.07;;;;;;;18.22;99.25;99994.81;5034790;28;20037;-82
2021/07/29 04:49:05;;;;;;;598.10;61.17;;;;;;;19.74;100.00;100122.31;5017054;28;20063;-82
2021/07/29 04:51:32;;;;;;;24.58;11.75;;;;;;;25.07;100.00;99972.19;5034727;28;20044;-82
2021/07/29 04:53:57;;;;;;;36.88;16.35;;;;;;;27.21;100.00;99982.34;5033030;28;20025;-82
2021/07/29 04:56:22;;;;;;;25.48;13.15;;;;;;;29.11;100.00;99976.53;5033041;28;20048;-81
2021/07/29 04:58:49;;;;;;;15.88;9.35;;;;;;;31.24;100.00;99963.94;5032098;28;20033;-81
2021/07/29 05:01:15;;;;;;;30.67;16.23;;;;;;;20.84;100.00;99942.91;5031693;28;20023;-81
2021/07/29 05:03:40;;;;;;;22.33;12.77;;;;;;;19.22;91.71;99944.88;5031553;28;20026;-81
2021/07/29 05:06:06;;;;;;;36.10;18.80;;;;;;;18.57;91.08;99941.06;5015301;28;20111;-82
2021/07/29 05:08:31;;;;;;;28.63;17.70;;;;;;;18.81;92.31;99945.94;5034337;28;20029;-82
2021/07/29 05:10:56;;;;;;;34.95;18.35;;;;;;;19.16;92.75;99955.78;5033982;28;20488;-82
2021/07/29 05:13:22;;;;;;;50.75;25.35;;;;;;;19.20;89.05;99976.97;5032972;28;20503;-82
2021/07/29 05:15:47;;;;;;;47.20;25.00;;;;;;;19.03;92.49;99972.97;5014177;28;20029;-82
2021/07/29 05:18:13;;;;;;;49.05;24.42;;;;;;;19.20;93.13;99996.03;5014494;28;20032;-82
2021/07/29 05:20:38;;;;;;;55.28;25.52;;;;;;;18.95;91.30;100008.63;5031381;28;20500;-82
2021/07/29 05:23:03;;;;;;;60.15;28.58;;;;;;;18.98;92.80;100003.59;5013328;28;20034;-82
2021/07/29 05:25:29;;;;;;;43.58;21.95;;;;;;;19.02;89.90;100004.84;5032782;28;20136;-81
2021/07/29 05:27:55;;;;;;;29.80;17.30;;;;;;;19.06;90.82;100005.25;5012304;28;20034;-82
2021/07/29 05:30:20;;;;;;;38.25;20.85;;;;;;;19.27;92.73;100005.06;5014841;28;20651;-81
2021/07/29 05:32:46;;;;;;;29.52;19.58;;;;;;;19.34;91.79;100002.31;4995210;28;20477;-81
2021/07/29 05:35:11;;;;;;;29.65;15.98;;;;;;;19.21;91.49;100003.16;5009061;28;20113;-82
2021/07/29 05:37:38;;;;;;;30.88;16.45;;;;;;;19.36;91.96;99996.66;4996297;28;20033;-82
2021/07/29 05:40:08;;;;;;;24.80;13.85;;;;;;;19.03;88.34;99989.34;5022769;28;20065;-82
2021/07/29 05:42:33;;;;;;;28.35;12.18;;;;;;;18.94;88.05;99987.84;5020351;28;20026;-82
2021/07/29 05:44:59;;;;;;;15.38;8.30;;;;;;;18.65;89.58;99989.06;5014196;28;20108;-82
2021/07/29 05:47:24;;;;;;;19.77;8.68;;;;;;;18.44;86.42;99987.34;5010229;28;20025;-81
2021/07/29 05:49:50;;;;;;;16.65;7.70;;;;;;;18.48;90.23;99983.16;5028758;28;20032;-82
2021/07/29 05:52:15;;;;;;;19.05;5.68;;;;;;;18.37;86.18;99971.84;5022092;28;20032;-82
2021/07/29 05:54:40;;;;;;;10.32;5.38;;;;;;;18.79;90.90;99968.97;5020944;28;20026;-81
2021/07/29 05:57:06;;;;;;;17.77;6.82;;;;;;;18.66;88.46;99967.06;4995154;28;20481;-81
2021/07/29 05:59:31;;;;;;;17.92;6.03;;;;;;;18.76;90.35;99973.00;5024944;28;20025;-81
2021/07/29 06:01:56;;;;;;;14.32;6.30;;;;;;;18.78;91.04;99965.44;5015128;28;20037;-82
2021/07/29 06:04:22;;;;;;;13.85;5.05;;;;;;;18.88;88.14;99975.06;5001384;28;20079;-82
2021/07/29 06:06:47;;;;;;;13.90;3.97;;;;;;;19.15;88.65;99968.56;5025965;28;20043;-82
2021/07/29 06:09:12;;;;;;;16.13;4.28;;;;;;;18.99;84.95;99969.84;5011812;28;20037;-82
2021/07/29 06:11:38;;;;;;;17.27;4.85;;;;;;;19.03;86.29;99970.25;5006049;28;20049;-81
2021/07/29 06:14:03;;;;;;;13.25;5.07;;;;;;;18.91;85.86;99961.88;5016066;28;20021;-82
2021/07/29 06:16:29;;;;;;;13.98;5.07;;;;;;;19.18;82.84;99980.94;5001671;28;20077;-82
2021/07/29 06:19:16;;;;;;;14.65;4.28;;;;;;;19.46;84.05;99978.81;5023980;28;20028;-82
2021/07/29 06:21:41;;;;;;;14.50;4.65;;;;;;;19.46;83.27;99969.78;4997883;28;20132;-82
2021/07/29 06:24:06;;;;;;;17.30;5.60;;;;;;;19.78;79.43;99981.72;5022652;28;20161;-82
2021/07/29 06:26:32;;;;;;;12.45;3.65;;;;;;;20.07;80.63;99999.44;5020235;28;20033;-82
2021/07/29 06:28:58;;;;;;;17.92;3.65;;;;;;;20.10;74.39;99996.28;4991487;28;20030;-82
2021/07/29 06:31:23;;;;;;;15.60;3.08;;;;;;;20.09;76.36;100015.63;5009968;28;20495;-82
2021/07/29 06:33:48;;;;;;;28.58;4.10;;;;;;;19.56;76.27;100021.16;5004954;28;20022;-82
2021/07/29 06:36:14;;;;;;;15.98;3.97;;;;;;;19.55;78.30;100035.88;4998509;28;20029;-82
2021/07/29 06:38:39;;;;;;;12.65;3.70;;;;;;;19.54;78.70;100045.09;4997646;28;20143;-82
2021/07/29 06:41:06;;;;;;;8.30;3.20;;;;;;;19.37;73.70;100040.06;5004917;28;20412;-82
2021/07/29 06:43:31;;;;;;;10.75;2.60;;;;;;;19.43;71.82;100032.94;5024944;28;20022;-82
2021/07/29 06:46:02;;;;;;;4.57;1.80;;;;;;;19.07;68.41;100017.88;5013569;28;20036;-81
2021/07/29 06:48:27;;;;;;;4.95;1.60;;;;;;;19.08;65.48;100024.16;5017951;28;20041;-81
2021/07/29 06:50:53;;;;;;;11.23;2.50;;;;;;;19.44;72.63;100016.38;5006394;28;20025;-82
2021/07/29 06:53:18;;;;;;;10.07;2.20;;;;;;;18.94;72.40;100026.84;4995296;28;20073;-82
2021/07/29 06:55:43;;;;;;;6.13;2.00;;;;;;;18.53;76.08;100037.84;5007385;28;20025;-82
2021/07/29 06:58:09;;;;;;;10.93;3.78;;;;;;;17.59;77.07;100030.22;5016768;28;20392;-82
2021/07/29 07:00:34;;;;;;;19.35;2.42;;;;;;;17.65;75.38;100049.31;5016881;28;20026;-82
2021/07/29 07:02:59;;;;;;;4.32;2.10;;;;;;;17.34;81.12;100025.25;5021903;28;20039;-82
2021/07/29 07:05:24;;;;;;;9.82;2.60;;;;;;;17.13;83.61;100036.97;5010584;28;20030;-82
2021/07/29 07:07:50;;;;;;;16.05;3.75;;;;;;;17.14;83.76;100041.41;5022124;28;20054;-82
2021/07/29 07:10:15;;;;;;;12.00;3.72;;;;;;;17.16;85.53;100036.59;4997763;28;20030;-81
2021/07/29 07:12:40;;;;;;;7.43;2.50;;;;;;;16.97;85.35;100042.69;4997303;28;20037;-81
2021/07/29 07:15:06;;;;;;;8.88;2.45;;;;;;;16.70;84.06;100038.84;5005609;28;20037;-82
2021/07/29 07:17:31;;;;;;;8.50;2.78;;;;;;;16.57;83.87;100052.28;5006823;28;20025;-82
2021/07/29 07:20:00;;;;;;;7.60;2.70;;;;;;;16.62;87.20;100047.97;4989690;28;20081;-82
2021/07/29 07:22:25;;;;;;;8.00;2.67;;;;;;;16.80;86.53;100042.09;5007753;28;20115;-81
2021/07/29 07:24:51;;;;;;;15.25;3.58;;;;;;;16.92;85.06;100039.72;4995181;28;20029;-82
2021/07/29 07:27:16;;;;;;;7.30;2.55;;;;;;;16.94;84.16;100040.38;5026259;28;20033;-82
2021/07/29 07:29:41;;;;;;;8.13;3.28;;;;;;;17.16;84.44;100023.00;4994887;28;20086;-82
2021/07/29 07:32:07;;;;;;;8.30;2.50;;;;;;;16.92;83.37;100026.97;5002402;28;20057;-82
2021/07/29 07:34:32;;;;;;;8.77;2.00;;;;;;;16.62;78.97;100018.09;5018659;28;20033;-82
2021/07/29 07:36:58;;;;;;;8.82;2.30;;;;;;;16.63;83.67;100027.91;5013267;28;20032;-82
2021/07/29 07:39:24;;;;;;;5.78;2.30;;;;;;;16.89;83.75;100027.34;5026888;28;20122;-82
2021/07/29 07:41:50;;;;;;;5.68;2.60;;;;;;;17.00;83.19;100026.84;5016465;28;20079;-82
2021/07/29 07:44:16;;;;;;;9.85;2.47;;;;;;;17.37;82.92;100024.00;5022082;28;20033;-82
2021/07/29 07:46:41;;;;;;;7.13;2.00;;;;;;;17.52;77.74;100016.59;5022924;28;20025;-81
2021/07/29 07:49:06;;;;;;;8.30;2.13;;;;;;;17.83;79.60;100028.94;5018552;28;20041;-82
2021/07/29 07:51:32;;;;;;;15.55;2.28;;;;;;;17.92;78.65;100017.69;5029132;28;20030;-82
2021/07/29 07:53:57;;;;;;;9.07;2.10;;;;;;;18.21;77.14;100033.94;5001798;28;20733;-82
2021/07/29 07:56:22;;;;;;;15.73;2.83;;;;;;;19.20;72.97;100042.38;5023498;28;20014;-82
2021/07/29 07:58:48;;;;;;;28.65;4.30;;;;;;;18.62;86.54;100057.56;5012834;28;20037;-82
2021/07/29 08:01:15;;;;;;;24.92;4.97;;;;;;;22.64;100.00;100086.16;5029276;28;20081;-82
2021/07/29 08:03:40;;;;;;;34.40;4.00;;;;;;;21.05;88.15;100096.69;5016086;28;20548;-82
2021/07/29 08:06:05;;;;;;;16.05;3.30;;;;;;;18.45;91.32;100047.03;5031609;28;20080;-82
2021/07/29 08:08:31;;;;;;;11.93;2.47;;;;;;;17.40;90.36;100026.34;5030876;28;20063;-82
2021/07/29 08:10:56;;;;;;;11.15;3.80;;;;;;;17.83;90.87;100039.84;5015865;28;20615;-82
2021/07/29 08:13:21;;;;;;;16.38;5.15;;;;;;;18.11;91.25;100045.22;5011328;28;20060;-82
2021/07/29 08:15:46;;;;;;;18.50;4.97;;;;;;;17.85;92.19;100044.03;5007752;28;20510;-82
2021/07/29 08:18:12;;;;;;;60.55;5.72;;;;;;;17.48;94.95;100055.22;5018997;28;20602;-82
2021/07/29 08:20:44;;;;;;;19.63;6.40;;;;;;;17.27;93.96;100056.13;5018941;28;20061;-82
2021/07/29 08:23:10;;;;;;;16.08;3.58;;;;;;;17.40;94.98;100080.69;5025959;28;20797;-81
2021/07/29 08:25:36;;;;;;;10.20;3.08;;;;;;;17.49;93.71;100067.81;5011812;28;20025;-81
2021/07/29 08:28:01;;;;;;;13.95;3.90;;;;;;;17.49;91.76;100059.66;5003256;28;20029;-84
2021/07/29 08:30:27;;;;;;;11.82;4.10;;;;;;;17.53;95.59;100069.09;5023867;28;20045;-81
2021/07/29 08:32:52;;;;;;;12.35;3.17;;;;;;;16.96;91.22;100090.75;5025203;28;20072;-82
2021/07/29 08:35:18;;;;;;;13.30;3.28;;;;;;;16.89;92.44;100081.69;4996630;28;20032;-81
2021/07/29 08:37:46;;;;;;;7.25;2.45;;;;;;;17.14;94.08;100092.16;5027535;28;20116;-82
2021/07/29 08:40:16;;;;;;;6.97;2.13;;;;;;;16.96;90.11;100085.31;5011608;28;20036;-84
2021/07/29 08:42:42;;;;;;;5.90;2.05;;;;;;;17.22;90.98;100089.31;5022343;28;20412;-81
2021/07/29 08:45:08;;;;;;;5.25;2.10;;;;;;;17.17;90.60;100098.06;4995807;28;20025;-81
2021/07/29 08:47:34;;;;;;;6.50;2.03;;;;;;;16.68;89.10;100079.78;5009058;28;20038;-81
2021/07/29 08:50:05;;;;;;;6.45;2.88;;;;;;;16.72;90.24;100083.78;5017283;28;20029;-81
2021/07/29 08:52:31;;;;;;;6.43;1.80;;;;;;;16.48;84.81;100078.69;5031423;28;20079;-82
2021/07/29 08:54:57;;;;;;;6.65;2.60;;;;;;;16.54;92.11;100086.06;5033845;28;20021;-81
2021/07/29 08:57:28;;;;;;;13.10;2.50;;;;;;;16.50;87.61;100082.91;5031003;28;20102;-83
2021/07/29 08:59:53;;;;;;;8.52;3.15;;;;;;;16.37;89.75;100090.88;5017582;28;20035;-81
2021/07/29 09:02:28;;;;;;;19.60;3.40;;;;;;;17.43;90.00;100097.44;5030653;28;20029;-82
2021/07/29 09:05:07;;;;;;;119.60;7.85;;;;;;;22.06;100.00;100314.72;5016249;28;20034;-82
2021/07/29 09:07:35;;;;;;;121.38;8.45;;;;;;;-145.71;100.00;60690.53;5012536;28;20137;-81
2021/07/29 09:10:03;;;;;;;16.33;4.85;;;;;;;-145.71;100.00;60690.53;5022330;28;20022;-81
2021/07/29 09:12:29;;;;;;;15.02;4.40;;;;;;;-145.71;100.00;60690.53;5020370;28;20025;-81
2021/07/29 09:14:54;;;;;;;15.60;5.75;;;;;;;-145.71;100.00;60690.53;4997879;28;20036;-81
2021/07/29 09:17:21;;;;;;;10.43;4.88;;;;;;;-145.71;100.00;60690.53;5026745;28;20026;-81
2021/07/29 09:19:49;;;;;;;10.85;5.05;;;;;;;-145.71;100.00;60690.53;4997049;28;20742;-81
2021/07/29 09:22:14;;;;;;;10.40;4.05;;;;;;;-145.71;100.00;60690.53;5024657;28;20076;-81
2021/07/29 09:25:09;;;;;;;18.58;3.88;;;;;;;-145.71;100.00;60690.53;4998856;28;20034;-81
2021/07/29 09:27:37;;;;;;;21.77;6.13;;;;;;;-145.71;100.00;60690.53;5027671;28;20060;-81
2021/07/29 09:30:23;;;;;;;15.23;4.07;;;;;;;-145.71;100.00;60690.53;5021318;28;20017;-81
2021/07/29 09:33:09;;;;;;;11.75;5.03;;;;;;;-145.71;100.00;60690.53;5024446;28;20124;-81
2021/07/29 09:35:46;;;;;;;17.25;5.85;;;;;;;-145.71;100.00;60690.53;5013565;28;20037;-81
2021/07/29 09:38:28;;;;;;;13.18;4.72;;;;;;;-145.71;100.00;60690.53;5003887;28;20036;-81
2021/07/29 09:40:59;;;;;;;;;;;;;;;-145.71;100.00;60690.53;5006208;28;20103;-81
2021/07/29 09:43:30;;;;;;;11.00;6.87;;;;;;;-145.71;100.00;60690.53;5027689;28;20335;-81
2021/07/29 09:45:56;;;;;;;24.92;3.92;;;;;;;-145.71;100.00;60690.53;5016022;28;20017;-81
2021/07/29 09:48:23;;;;;;;0.35;0.35;;;;;;;-145.71;100.00;60690.53;5019918;28;20029;-81
2021/07/29 09:50:58;;;;;;;0.50;0.50;;;;;;;-145.71;100.00;60690.53;5021243;28;20136;-81
2021/07/29 09:53:24;;;;;;;0.40;0.40;;;;;;;-145.71;100.00;60690.53;5012244;28;20117;-81
2021/07/29 09:55:49;;;;;;;0.70;0.70;;;;;;;-145.71;100.00;60690.53;5022506;28;20076;-82
2021/07/29 09:58:15;;;;;;;0.30;0.30;;;;;;;-145.71;100.00;60690.53;5016237;28;20028;-81
2021/07/29 10:00:41;;;;;;;0.30;0.30;;;;;;;-145.71;100.00;60690.53;5015461;28;20036;-81
2021/07/29 10:03:08;;;;;;;0.30;0.30;;;;;;;-145.71;100.00;60690.53;5028029;28;20781;-82
2021/07/29 10:05:51;;;;;;;4.65;1.40;;;;;;;-145.71;100.00;60690.53;5009902;28;20030;-82
2021/07/29 10:08:31;;;;;;;0.30;0.30;;;;;;;-145.71;100.00;60690.53;5019436;28;20032;-81
2021/07/29 10:11:01;;;;;;;0.52;0.52;;;;;;;-145.71;100.00;60690.53;4996188;28;20397;-82
2021/07/29 10:13:34;;;;;;;1.35;1.05;;;;;;;-145.71;100.00;60690.53;5025413;28;20029;-81
2021/07/29 10:15:59;;;;;;;2.67;1.23;;;;;;;-145.71;100.00;60690.53;5014990;28;20079;-81
2021/07/29 10:18:25;;;;;;;0.25;0.25;;;;;;;-145.71;100.00;60690.53;4999655;28;20065;-82
2021/07/29 10:21:23;;;;;;;0.55;0.55;;;;;;;-145.71;100.00;60690.53;5013151;28;20089;-83
2021/07/29 10:23:59;;;;;;;1.17;1.15;;;;;;;-145.71;100.00;60690.53;4997826;28;20029;-81
2021/07/29 10:26:33;;;;;;;0.60;0.60;;;;;;;-145.71;100.00;60690.53;5019317;28;20033;-81
2021/07/29 10:29:22;;;;;;;0.40;0.40;;;;;;;-145.71;100.00;60690.53;5007309;28;20038;-82
2021/07/29 10:31:55;;;;;;;4.80;1.67;;;;;;;-145.71;100.00;60690.53;4991715;28;20085;-81
2021/07/29 10:34:29;;;;;;;0.30;0.30;;;;;;;-145.71;100.00;60690.53;5006671;28;20024;-82
2021/07/29 10:36:59;;;;;;;2.47;2.22;;;;;;;-145.71;100.00;60690.53;5013830;28;20456;-82
2021/07/29 10:39:25;;;;;;;0.30;0.30;;;;;;;-145.71;100.00;60690.53;5007375;28;20124;-82
2021/07/29 10:41:53;;;;;;;0.30;0.30;;;;;;;-145.71;100.00;60690.53;5022278;28;20033;-81
2021/07/29 10:44:34;;;;;;;2.25;1.38;;;;;;;-145.71;100.00;60690.53;5017572;28;20488;-81
2021/07/29 10:47:03;;;;;;;0.73;0.73;;;;;;;-145.71;100.00;60690.53;5021319;28;20059;-81
2021/07/29 10:49:46;;;;;;;0.30;0.30;;;;;;;-145.71;100.00;60690.53;5010399;28;20551;-82
2021/07/29 10:52:13;;;;;;;0.30;0.30;;;;;;;-145.71;100.00;60690.53;5018577;28;20065;-82
2021/07/29 10:54:43;;;;;;;0.75;0.75;;;;;;;-145.71;100.00;60690.53;5018518;28;20029;-82
2021/07/29 10:57:11;;;;;;;0.30;0.30;;;;;;;-145.71;100.00;60690.53;5011572;28;20508;-81
2021/07/29 10:59:37;;;;;;;0.82;0.68;;;;;;;-145.71;100.00;60690.53;4989626;28;20113;-82
2021/07/29 11:02:18;;;;;;;0.40;0.40;;;;;;;-145.71;100.00;60690.53;5018151;28;20017;-81
2021/07/29 11:04:53;;;;;;;0.60;0.60;;;;;;;-145.71;100.00;60690.53;5012742;28;20120;-82
2021/07/29 11:07:19;;;;;;;4.22;1.75;;;;;;;-145.71;100.00;60690.53;5012266;28;20021;-82
2021/07/29 11:09:45;;;;;;;13.25;2.53;;;;;;;-145.71;100.00;60690.53;5015509;28;20698;-81
2021/07/29 11:12:16;;;;;;;0.50;0.50;;;;;;;-145.71;100.00;60690.53;5000775;28;20139;-82
2021/07/29 11:14:42;;;;;;;19.48;0.95;;;;;;;-145.71;100.00;60690.53;5009361;28;20492;-81